createdAt,value
2022-12-23T00:00:39.281Z,3.90
2022-12-23T00:03:06.420Z,3.90
2022-12-23T00:05:40.078Z,3.90
2022-12-23T00:08:08.391Z,4.00
2022-12-23T00:10:39.129Z,4.00
2022-12-23T00:13:24.783Z,4.00
2022-12-23T00:16:00.444Z,4.10
2022-12-23T00:18:27.506Z,4.10
2022-12-23T00:21:08.884Z,4.10
2022-12-23T00:23:39.406Z,4.10
2022-12-23T00:26:07.076Z,4.10
2022-12-23T00:28:34.290Z,4.10
2022-12-23T00:31:06.911Z,4.10
2022-12-23T00:33:40.304Z,4.10
2022-12-23T00:36:21.118Z,4.10
2022-12-23T00:39:11.513Z,4.10
2022-12-23T00:41:57.720Z,4.10
2022-12-23T00:44:24.984Z,4.10
2022-12-23T00:46:51.948Z,4.10
2022-12-23T00:49:38.208Z,4.10
2022-12-23T00:52:07.599Z,4.00
2022-12-23T00:54:34.538Z,4.00
2022-12-23T00:57:02.487Z,3.90
2022-12-23T00:59:29.634Z,3.80
2022-12-23T01:02:15.160Z,3.80
2022-12-23T01:05:00.960Z,3.70
2022-12-23T01:07:28.055Z,3.70
2022-12-23T01:09:55.000Z,3.70
2022-12-23T01:12:21.980Z,3.60
2022-12-23T01:14:48.978Z,3.60
2022-12-23T01:17:16.570Z,3.60
2022-12-23T01:19:43.551Z,3.50
2022-12-23T01:22:10.634Z,3.50
2022-12-23T01:24:37.576Z,3.50
2022-12-23T01:27:04.467Z,3.40
2022-12-23T01:29:31.551Z,3.40
2022-12-23T01:31:58.563Z,3.40
2022-12-23T01:34:29.699Z,3.40
2022-12-23T01:36:59.599Z,3.30
2022-12-23T01:39:26.541Z,3.30
2022-12-23T01:42:12.051Z,3.30
2022-12-23T01:44:57.540Z,3.30
2022-12-23T01:47:40.677Z,3.30
2022-12-23T01:50:36.097Z,3.30
2022-12-23T01:53:09.824Z,3.20
2022-12-23T01:55:42.972Z,3.20
2022-12-23T01:58:15.346Z,3.20
2022-12-23T02:01:01.696Z,3.20
2022-12-23T02:03:44.618Z,3.20
2022-12-23T02:06:40.858Z,3.20
2022-12-23T02:09:23.307Z,3.20
2022-12-23T02:12:01.865Z,3.20
2022-12-23T02:14:53.298Z,3.30
2022-12-23T02:17:52.740Z,3.30
2022-12-23T02:20:19.694Z,3.30
2022-12-23T02:23:26.733Z,3.30
2022-12-23T02:26:12.207Z,3.40
2022-12-23T02:29:06.844Z,3.40
2022-12-23T02:31:49.744Z,3.40
2022-12-23T02:34:25.200Z,3.40
2022-12-23T02:37:05.519Z,3.40
2022-12-23T02:39:37.981Z,3.40
2022-12-23T02:42:15.683Z,3.30
2022-12-23T02:44:52.980Z,3.30
2022-12-23T02:47:34.850Z,3.30
2022-12-23T02:50:08.375Z,3.30
2022-12-23T02:52:38.562Z,3.30
2022-12-23T02:55:16.834Z,3.40
2022-12-23T02:57:48.088Z,3.40
2022-12-23T03:00:15.785Z,3.30
2022-12-23T03:02:43.180Z,3.40
2022-12-23T03:05:28.384Z,3.40
2022-12-23T03:07:59.921Z,3.40
2022-12-23T03:10:29.873Z,3.40
2022-12-23T03:13:04.927Z,3.50
2022-12-23T03:16:02.309Z,3.60
2022-12-23T03:18:54.617Z,3.60
2022-12-23T03:21:39.685Z,3.60
2022-12-23T03:24:24.578Z,3.60
2022-12-23T03:26:57.634Z,3.60
2022-12-23T03:29:43.004Z,3.70
2022-12-23T03:32:13.356Z,3.70
2022-12-23T03:34:45.687Z,3.70
2022-12-23T03:37:16.603Z,3.80
2022-12-23T03:40:21.848Z,3.80
2022-12-23T03:43:12.050Z,3.80
2022-12-23T03:45:45.498Z,3.90
2022-12-23T03:48:23.244Z,3.90
2022-12-23T03:50:53.827Z,3.90
2022-12-23T03:53:44.852Z,3.90
2022-12-23T03:56:25.910Z,3.90
2022-12-23T03:58:59.399Z,3.90
2022-12-23T04:01:29.253Z,3.90
2022-12-23T04:04:27.468Z,3.90
2022-12-23T04:07:05.303Z,3.90
2022-12-23T04:09:32.337Z,3.90
2022-12-23T04:11:59.523Z,3.90
2022-12-23T04:14:26.468Z,3.90
2022-12-23T04:16:58.517Z,3.90
2022-12-23T04:19:25.764Z,3.90
2022-12-23T04:21:55.853Z,3.90
2022-12-23T04:24:22.878Z,3.90
2022-12-23T04:26:49.791Z,3.90
2022-12-23T04:29:16.833Z,3.80
2022-12-23T04:31:43.787Z,3.80
2022-12-23T04:34:10.724Z,3.80
2022-12-23T04:36:37.703Z,3.70
2022-12-23T04:39:04.688Z,3.70
2022-12-23T04:41:31.691Z,3.70
2022-12-23T04:43:58.607Z,3.60
2022-12-23T04:46:25.563Z,3.60
2022-12-23T04:48:52.702Z,3.60
2022-12-23T04:51:19.624Z,3.60
2022-12-23T04:53:46.540Z,3.50
2022-12-23T04:56:13.682Z,3.50
2022-12-23T04:58:40.874Z,3.50
2022-12-23T05:01:10.442Z,3.40
2022-12-23T05:03:38.581Z,3.50
2022-12-23T05:06:05.872Z,3.40
2022-12-23T05:08:33.002Z,3.30
2022-12-23T05:11:00.174Z,3.30
2022-12-23T05:13:27.504Z,3.20
2022-12-23T05:15:55.109Z,3.10
2022-12-23T05:18:22.716Z,3.10
2022-12-23T05:20:50.434Z,3.00
2022-12-23T05:23:17.536Z,3.00
2022-12-23T05:25:50.055Z,2.90
2022-12-23T05:28:16.961Z,2.90
2022-12-23T05:30:43.924Z,2.90
2022-12-23T05:33:11.274Z,3.00
2022-12-23T05:35:38.202Z,3.10
2022-12-23T05:38:05.180Z,3.10
2022-12-23T05:40:32.721Z,3.20
2022-12-23T05:43:00.491Z,3.20
2022-12-23T05:45:27.517Z,3.30
2022-12-23T05:47:54.508Z,3.30
2022-12-23T05:50:21.495Z,3.40
2022-12-23T05:52:48.522Z,3.30
2022-12-23T05:55:15.517Z,3.30
2022-12-23T05:57:42.448Z,3.30
2022-12-23T06:00:13.306Z,3.20
2022-12-23T06:02:40.799Z,3.20
2022-12-23T06:05:08.342Z,3.20
2022-12-23T06:07:35.478Z,3.20
2022-12-23T06:10:02.429Z,3.10
2022-12-23T06:12:29.418Z,3.10
2022-12-23T06:14:56.408Z,3.10
2022-12-23T06:17:23.449Z,3.20
2022-12-23T06:19:50.473Z,3.20
2022-12-23T06:22:18.132Z,3.20
2022-12-23T06:24:45.322Z,3.30
2022-12-23T06:27:12.281Z,3.30
2022-12-23T06:29:39.289Z,3.30
2022-12-23T06:32:06.731Z,3.30
2022-12-23T06:34:33.992Z,3.30
2022-12-23T06:37:00.913Z,3.30
2022-12-23T06:39:28.052Z,3.20
2022-12-23T06:41:55.132Z,3.30
2022-12-23T06:44:22.067Z,3.20
2022-12-23T06:46:49.005Z,3.20
2022-12-23T06:49:15.967Z,3.10
2022-12-23T06:51:42.945Z,3.00
2022-12-23T06:54:12.003Z,3.00
2022-12-23T06:56:39.768Z,3.00
2022-12-23T06:59:06.957Z,3.00
2022-12-23T07:01:34.034Z,3.00
2022-12-23T07:04:02.012Z,3.00
2022-12-23T07:06:29.246Z,3.00
2022-12-23T07:08:56.372Z,3.00
2022-12-23T07:11:23.302Z,3.00
2022-12-23T07:13:50.429Z,3.00
2022-12-23T07:16:17.470Z,2.90
2022-12-23T07:18:44.549Z,3.00
2022-12-23T07:21:21.176Z,3.10
2022-12-23T07:23:51.751Z,3.10
2022-12-23T07:26:18.645Z,3.10
2022-12-23T07:28:48.107Z,3.10
2022-12-23T07:31:15.515Z,3.10
2022-12-23T07:33:42.659Z,3.10
2022-12-23T07:36:10.242Z,3.10
2022-12-23T07:38:37.371Z,3.10
2022-12-23T07:41:04.479Z,3.00
2022-12-23T07:43:31.487Z,3.00
2022-12-23T07:46:00.572Z,3.00
2022-12-23T07:48:28.030Z,3.00
2022-12-23T07:51:03.986Z,3.00
2022-12-23T07:53:31.040Z,3.00
2022-12-23T07:55:58.524Z,3.00
2022-12-23T07:58:25.759Z,3.00
2022-12-23T08:01:00.372Z,3.00
2022-12-23T08:03:27.452Z,3.00
2022-12-23T08:06:06.056Z,3.00
2022-12-23T08:08:33.735Z,2.90
2022-12-23T08:11:03.038Z,2.90
2022-12-23T08:13:30.723Z,2.90
2022-12-23T08:15:59.308Z,2.80
2022-12-23T08:18:27.475Z,2.80
2022-12-23T08:20:56.151Z,2.80
2022-12-23T08:23:25.022Z,2.80
2022-12-23T08:26:11.469Z,2.70
2022-12-23T08:28:39.859Z,2.80
2022-12-23T08:31:10.375Z,2.80
2022-12-23T08:33:38.665Z,2.80
2022-12-23T08:36:08.640Z,2.80
2022-12-23T08:38:36.392Z,2.70
2022-12-23T08:41:08.731Z,2.70
2022-12-23T08:43:36.248Z,2.80
2022-12-23T08:46:04.583Z,2.70
2022-12-23T08:48:32.547Z,2.70
2022-12-23T08:51:07.570Z,2.70
2022-12-23T08:53:36.541Z,2.70
2022-12-23T08:56:05.918Z,2.70
2022-12-23T08:58:37.506Z,2.70
2022-12-23T09:01:09.646Z,2.70
2022-12-23T09:03:38.431Z,2.70
2022-12-23T09:06:10.720Z,2.70
2022-12-23T09:08:38.548Z,2.70
2022-12-23T09:11:08.393Z,2.70
2022-12-23T09:13:36.098Z,2.70
2022-12-23T09:16:04.484Z,2.70
2022-12-23T09:18:32.140Z,2.70
2022-12-23T09:21:07.120Z,2.70
2022-12-23T09:23:34.781Z,2.80
2022-12-23T09:26:01.751Z,2.80
2022-12-23T09:28:28.752Z,2.80
2022-12-23T09:30:55.728Z,2.70
2022-12-23T09:33:22.932Z,2.80
2022-12-23T09:35:50.276Z,2.80
2022-12-23T09:38:17.314Z,2.80
2022-12-23T09:40:45.796Z,2.80
2022-12-23T09:43:43.033Z,2.90
2022-12-23T09:46:15.833Z,2.90
2022-12-23T09:49:13.436Z,2.90
2022-12-23T09:51:40.438Z,2.90
2022-12-23T09:54:29.557Z,2.90
2022-12-23T09:56:58.875Z,3.00
2022-12-23T09:59:55.644Z,2.90
2022-12-23T10:02:31.545Z,2.90
2022-12-23T10:05:29.199Z,3.00
2022-12-23T10:08:02.758Z,3.00
2022-12-23T10:10:44.353Z,2.90
2022-12-23T10:13:34.980Z,2.90
2022-12-23T10:16:12.844Z,2.90
2022-12-23T10:19:13.709Z,3.00
2022-12-23T10:21:47.656Z,3.20
2022-12-23T10:24:28.943Z,3.20
2022-12-23T10:27:03.166Z,3.30
2022-12-23T10:29:37.417Z,3.40
2022-12-23T10:32:18.223Z,3.40
2022-12-23T10:35:32.524Z,3.50
2022-12-23T10:38:05.597Z,4.00
2022-12-23T10:40:46.620Z,4.80
2022-12-23T10:43:28.530Z,5.60
2022-12-23T10:46:20.070Z,6.30
2022-12-23T10:49:05.859Z,6.70
2022-12-23T10:51:53.754Z,6.70
2022-12-23T10:54:26.930Z,6.40
2022-12-23T10:56:54.700Z,6.10
2022-12-23T10:59:42.162Z,5.80
2022-12-23T11:02:12.494Z,5.40
2022-12-23T11:04:50.196Z,5.20
2022-12-23T11:10:17.249Z,4.80
2022-12-23T11:12:47.533Z,4.70
2022-12-23T11:15:33.756Z,4.60
2022-12-23T11:18:12.327Z,4.70
2022-12-23T11:20:41.461Z,4.70
2022-12-23T11:23:26.876Z,4.60
2022-12-23T11:26:18.381Z,4.60
2022-12-23T11:28:56.334Z,4.50
2022-12-23T11:31:28.573Z,4.50
2022-12-23T11:34:03.030Z,4.60
2022-12-23T11:36:31.512Z,4.60
2022-12-23T11:39:26.227Z,4.70
2022-12-23T11:42:02.412Z,4.70
2022-12-23T11:44:33.857Z,4.70
2022-12-23T11:47:32.044Z,4.60
2022-12-23T11:50:01.733Z,4.60
2022-12-23T11:52:33.901Z,4.70
2022-12-23T11:55:03.462Z,4.70
2022-12-23T11:57:39.703Z,4.60
2022-12-23T12:00:18.053Z,4.60
2022-12-23T12:02:47.676Z,4.50
2022-12-23T12:05:21.148Z,4.50
2022-12-23T12:07:49.999Z,4.40
2022-12-23T12:10:21.302Z,4.40
2022-12-23T12:13:05.499Z,4.40
2022-12-23T12:15:54.204Z,4.30
2022-12-23T12:18:22.142Z,4.30
2022-12-23T12:20:54.035Z,4.40
2022-12-23T12:23:36.495Z,4.30
2022-12-23T12:26:10.562Z,4.30
2022-12-23T12:28:47.140Z,4.30
2022-12-23T12:31:35.593Z,4.40
2022-12-23T12:34:02.593Z,4.50
2022-12-23T12:36:38.189Z,4.60
2022-12-23T12:39:05.414Z,4.60
2022-12-23T12:41:39.805Z,4.50
2022-12-23T12:44:24.651Z,4.60
2022-12-23T12:46:58.588Z,4.60
2022-12-23T12:49:49.699Z,4.70
2022-12-23T12:52:21.943Z,4.90
2022-12-23T12:55:15.049Z,4.90
2022-12-23T12:57:42.414Z,4.60
2022-12-23T13:00:22.376Z,4.50
2022-12-23T13:03:11.208Z,4.40
2022-12-23T13:05:54.183Z,4.40
2022-12-23T13:09:01.837Z,4.30
2022-12-23T13:11:47.237Z,4.30
2022-12-23T13:14:47.218Z,4.10
2022-12-23T13:17:20.734Z,4.10
2022-12-23T13:19:52.361Z,4.00
2022-12-23T13:22:38.711Z,3.90
2022-12-23T13:25:14.275Z,3.90
2022-12-23T13:27:53.784Z,3.80
2022-12-23T13:30:23.908Z,3.80
2022-12-23T13:33:28.362Z,3.70
2022-12-23T13:36:05.017Z,3.60
2022-12-23T13:38:47.377Z,3.50
2022-12-23T13:41:45.137Z,3.50
2022-12-23T13:44:18.305Z,3.50
2022-12-23T13:47:06.541Z,3.60
2022-12-23T13:49:40.821Z,3.70
2022-12-23T13:52:18.618Z,3.70
2022-12-23T13:55:15.422Z,3.70
2022-12-23T13:57:58.941Z,3.70
2022-12-23T14:00:33.330Z,3.70
2022-12-23T14:03:00.847Z,3.80
2022-12-23T14:05:37.024Z,3.70
2022-12-23T14:08:08.283Z,3.70
2022-12-23T14:10:38.107Z,3.70
2022-12-23T14:13:08.728Z,3.80
2022-12-23T14:15:54.191Z,3.70
2022-12-23T14:18:34.294Z,3.70
2022-12-23T14:21:04.238Z,3.70
2022-12-23T14:24:08.804Z,3.80
2022-12-23T14:26:46.320Z,3.80
2022-12-23T14:29:13.345Z,3.80
2022-12-23T14:31:43.709Z,3.80
2022-12-23T14:34:23.013Z,3.70
2022-12-23T14:37:21.113Z,3.70
2022-12-23T14:39:49.625Z,3.70
2022-12-23T14:42:34.372Z,3.70
2022-12-23T14:45:34.510Z,3.60
2022-12-23T14:48:02.695Z,3.60
2022-12-23T14:50:55.659Z,3.60
2022-12-23T14:53:25.867Z,3.60
2022-12-23T14:56:19.965Z,3.60
2022-12-23T14:58:54.045Z,3.60
2022-12-23T15:01:24.110Z,3.60
2022-12-23T15:03:59.255Z,3.60
2022-12-23T15:06:36.851Z,3.70
2022-12-23T15:09:05.274Z,3.60
2022-12-23T15:11:34.623Z,3.70
2022-12-23T15:14:08.034Z,3.70
2022-12-23T15:16:39.805Z,3.70
2022-12-23T15:19:28.155Z,3.70
2022-12-23T15:22:21.136Z,3.70
2022-12-23T15:24:51.082Z,3.70
2022-12-23T15:27:29.833Z,3.70
2022-12-23T15:29:57.722Z,3.70
2022-12-23T15:32:26.257Z,3.70
2022-12-23T15:35:02.619Z,3.60
2022-12-23T15:37:31.220Z,3.60
2022-12-23T15:40:09.496Z,3.60
2022-12-23T15:42:38.907Z,3.50
2022-12-23T15:45:31.296Z,3.50
2022-12-23T15:47:58.527Z,3.50
2022-12-23T15:50:25.869Z,3.50
2022-12-23T15:52:56.102Z,3.40
2022-12-23T15:55:31.182Z,3.40
2022-12-23T15:57:59.429Z,3.50
2022-12-23T16:00:40.700Z,3.50
2022-12-23T16:03:24.062Z,3.60
2022-12-23T16:05:51.297Z,3.70
2022-12-23T16:08:28.629Z,3.70
2022-12-23T16:11:06.011Z,3.60
2022-12-23T16:13:33.536Z,3.60
2022-12-23T16:16:42.704Z,3.60
2022-12-23T16:19:38.437Z,3.60
2022-12-23T16:22:12.831Z,3.60
2022-12-23T16:24:46.788Z,3.50
2022-12-23T16:27:20.085Z,3.50
2022-12-23T16:29:48.809Z,3.60
2022-12-23T16:32:18.010Z,3.70
2022-12-23T16:34:50.131Z,3.80
2022-12-23T16:37:17.082Z,3.80
2022-12-23T16:39:44.041Z,3.80
2022-12-23T16:42:10.995Z,3.80
2022-12-23T16:44:38.007Z,3.80
2022-12-23T16:47:13.655Z,3.80
2022-12-23T16:49:40.577Z,3.90
2022-12-23T16:52:09.311Z,3.90
2022-12-23T16:54:36.287Z,3.90
2022-12-23T16:57:03.258Z,3.90
2022-12-23T16:59:30.210Z,4.00
2022-12-23T17:02:03.076Z,4.00
2022-12-23T17:04:30.732Z,4.00
2022-12-23T17:06:57.684Z,3.90
2022-12-23T17:09:24.602Z,3.90
2022-12-23T17:11:53.898Z,3.90
2022-12-23T17:14:24.176Z,3.90
2022-12-23T17:16:51.702Z,3.90
2022-12-23T17:19:28.697Z,3.90
2022-12-23T17:22:01.208Z,3.90
2022-12-23T17:24:28.554Z,3.90
2022-12-23T17:26:59.183Z,3.80
2022-12-23T17:29:26.331Z,3.80
2022-12-23T17:31:53.552Z,3.70
2022-12-23T17:34:23.632Z,3.70
2022-12-23T17:36:51.458Z,3.70
2022-12-23T17:39:19.709Z,3.70
2022-12-23T17:41:46.875Z,3.60
2022-12-23T17:44:15.408Z,3.60
2022-12-23T17:46:42.833Z,3.60
2022-12-23T17:49:09.899Z,3.60
2022-12-23T17:51:39.471Z,3.60
2022-12-23T17:54:06.610Z,3.60
2022-12-23T17:56:33.663Z,3.60
2022-12-23T17:59:00.703Z,3.60
2022-12-23T18:01:32.257Z,3.70
2022-12-23T18:04:00.552Z,3.60
2022-12-23T18:06:29.042Z,3.60
2022-12-23T18:08:59.255Z,3.60
2022-12-23T18:11:39.630Z,3.50
2022-12-23T18:14:13.196Z,3.50
2022-12-23T18:16:40.206Z,3.50
2022-12-23T18:19:18.154Z,3.50
2022-12-23T18:21:45.688Z,3.50
2022-12-23T18:24:12.635Z,3.50
2022-12-23T18:26:39.674Z,3.50
2022-12-23T18:29:06.631Z,3.50
2022-12-23T18:31:33.704Z,3.50
2022-12-23T18:34:00.750Z,3.50
2022-12-23T18:36:31.570Z,3.50
2022-12-23T18:38:58.756Z,3.50
2022-12-23T18:41:27.592Z,3.60
2022-12-23T18:43:54.836Z,3.50
2022-12-23T18:46:22.086Z,3.60
2022-12-23T18:48:49.654Z,3.60
2022-12-23T18:51:18.798Z,3.60
2022-12-23T18:53:46.707Z,3.60
2022-12-23T18:56:21.199Z,3.60
2022-12-23T18:58:48.474Z,3.60
2022-12-23T19:01:16.630Z,3.60
2022-12-23T19:03:44.736Z,3.60
2022-12-23T19:06:14.828Z,3.60
2022-12-23T19:08:42.536Z,3.60
2022-12-23T19:11:15.503Z,3.70
2022-12-23T19:13:42.500Z,3.80
2022-12-23T19:16:14.359Z,3.80
2022-12-23T19:18:41.672Z,3.90
2022-12-23T19:21:09.470Z,3.90
2022-12-23T19:23:37.190Z,4.00
2022-12-23T19:26:06.298Z,4.10
2022-12-23T19:28:33.995Z,4.10
2022-12-23T19:31:12.064Z,4.20
2022-12-23T19:33:39.788Z,4.30
2022-12-23T19:36:23.078Z,4.40
2022-12-23T19:38:50.648Z,4.50
2022-12-23T19:41:18.495Z,4.50
2022-12-23T19:43:46.784Z,4.50
2022-12-23T19:46:15.577Z,4.60
2022-12-23T19:48:49.662Z,4.60
2022-12-23T19:51:27.316Z,4.60
2022-12-23T19:54:12.123Z,4.70
2022-12-23T19:56:39.118Z,4.70
2022-12-23T19:59:06.061Z,4.60
2022-12-23T20:01:33.320Z,4.50
2022-12-23T20:04:00.403Z,4.50
2022-12-23T20:06:35.614Z,4.50
2022-12-23T20:09:06.522Z,4.50
2022-12-23T20:11:39.266Z,4.50
2022-12-23T20:14:07.777Z,4.60
2022-12-23T20:16:36.119Z,4.50
2022-12-23T20:19:03.396Z,4.60
2022-12-23T20:21:30.645Z,4.50
2022-12-23T20:23:57.817Z,4.60
2022-12-23T20:26:25.006Z,4.60
2022-12-23T20:28:51.988Z,4.60
2022-12-23T20:31:27.931Z,4.60
2022-12-23T20:33:55.955Z,4.60
2022-12-23T20:36:26.635Z,4.60
2022-12-23T20:38:54.061Z,4.70
2022-12-23T20:41:23.446Z,4.70
2022-12-23T20:44:23.302Z,4.80
2022-12-23T20:46:42.572Z,4.80
2022-12-23T20:49:09.552Z,4.80
2022-12-23T20:51:36.511Z,4.80
2022-12-23T20:54:03.522Z,4.80
2022-12-23T20:56:31.622Z,4.90
2022-12-23T20:58:59.524Z,4.90
2022-12-23T21:01:32.295Z,4.90
2022-12-23T21:04:02.515Z,4.90
2022-12-23T21:06:30.911Z,4.90
2022-12-23T21:08:59.971Z,4.90
2022-12-23T21:11:31.883Z,4.90
2022-12-23T21:14:06.276Z,4.90
2022-12-23T21:16:35.407Z,4.90
2022-12-23T21:19:03.262Z,4.90
2022-12-23T21:21:31.921Z,4.80
2022-12-23T21:24:04.534Z,4.50
2022-12-23T21:26:33.779Z,4.40
2022-12-23T21:29:01.999Z,4.30
2022-12-23T21:31:31.173Z,4.20
2022-12-23T21:33:58.901Z,4.20
2022-12-23T21:36:29.164Z,4.20
2022-12-23T21:38:56.430Z,4.30
2022-12-23T21:41:25.717Z,4.30
2022-12-23T21:43:52.815Z,4.30
2022-12-23T21:46:23.940Z,4.40
2022-12-23T21:48:51.515Z,4.40
2022-12-23T21:51:22.169Z,4.30
2022-12-23T21:53:52.530Z,4.40
2022-12-23T21:56:28.081Z,4.30
2022-12-23T21:59:00.222Z,4.30
2022-12-23T22:01:27.756Z,4.30
2022-12-23T22:03:55.770Z,4.30
2022-12-23T22:06:32.035Z,4.20
2022-12-23T22:08:59.910Z,4.10
2022-12-23T22:11:32.474Z,4.10
2022-12-23T22:14:01.487Z,4.10
2022-12-23T22:16:30.082Z,4.10
2022-12-23T22:18:58.359Z,4.10
2022-12-23T22:21:27.480Z,4.00
2022-12-23T22:23:55.608Z,4.10
2022-12-23T22:26:26.319Z,4.10
2022-12-23T22:28:55.553Z,4.10
2022-12-23T22:31:40.029Z,4.10
2022-12-23T22:34:08.786Z,4.10
2022-12-23T22:36:36.127Z,4.10
2022-12-23T22:39:03.478Z,4.20
2022-12-23T22:41:31.637Z,4.20
2022-12-23T22:43:59.372Z,4.20
2022-12-23T22:46:26.856Z,4.20
2022-12-23T22:48:54.386Z,4.20
2022-12-23T22:51:24.162Z,4.10
2022-12-23T22:53:51.127Z,4.10
2022-12-23T22:56:20.253Z,4.00
2022-12-23T22:58:47.637Z,4.00
2022-12-23T23:01:30.429Z,4.00
2022-12-23T23:03:59.831Z,4.00
2022-12-23T23:06:31.576Z,4.10
2022-12-23T23:08:58.878Z,4.20
2022-12-23T23:11:27.553Z,4.20
2022-12-23T23:13:54.892Z,4.20
2022-12-23T23:16:22.418Z,4.30
2022-12-23T23:18:49.854Z,4.30
2022-12-23T23:21:17.458Z,4.30
2022-12-23T23:23:48.059Z,4.40
2022-12-23T23:26:15.225Z,4.40
2022-12-23T23:28:42.206Z,4.40
2022-12-23T23:33:57.922Z,4.50
2022-12-23T23:36:25.136Z,4.50
2022-12-23T23:38:52.148Z,4.50
2022-12-23T23:41:23.421Z,4.50
2022-12-23T23:43:51.707Z,4.40
2022-12-23T23:46:19.258Z,4.40
2022-12-23T23:48:46.438Z,4.30
2022-12-23T23:51:13.452Z,4.20
2022-12-23T23:53:40.777Z,4.20
2022-12-23T23:56:08.833Z,4.10
2022-12-23T23:58:37.272Z,4.10
